Weldon Spring Heights, Missouri
Current Conditions -  °F | °C
As of 4:54 AM on Friday 31 Oct 2014 (Local Time) from KSUS Reporting Station
Overcast Overcast  
Wind Chill: 44°   Ceiling: 10000
Heat Index: 47°   Visibility: 10mi
Dew Point: 43°   Wind: 6mph
Humidity: 86%   Direction: 350°N
Pressure: 30.12"   Gusts: NA
Location:  38.7167°N, 90.6411°W
Report Text: KSUS 310954Z AUTO 35005KT 10SM SCT070 OVC100 08/06 A3012 RMK AO2 SLP200 T00830061
Loading
Personal Weather Stations






























Interactive Weather Map
Tropical Storm Tracking
New forecast layout! Learn more

10-Day Weather Forecast

Advertisements
Track Severe Weather on mobile